Time;durP1;ratioP1;P1;durP2;ratioP2;P2;SDS_P1;SDS_P2;PMS_P1;PMS_P2;Temp;Humidity;BMP_temperature;BMP_pressure;BME280_temperature;BME280_humidity;BME280_pressure;Samples;Min_cycle;Max_cycle;Signal;HPM_P1;HPM_P2
2023/11/30 00:01:24;;;;;;;14.50;9.50;;;;;;;;;;104103;1292;545125;-77
2023/11/30 00:05:10;;;;;;;;;;;;;;;;;;;;;
2023/11/30 00:08:38;;;;;;;14.60;9.40;;;;;;;;;;104101;1298;545467;-78
2023/11/30 00:12:18;;;;;;;14.90;9.20;;;;;;;;;;104054;1291;545413;-78
2023/11/30 00:15:53;;;;;;;14.70;9.00;;;;;;;;;;104046;1291;545500;-79
2023/11/30 00:19:35;;;;;;;12.20;8.60;;;;;;;;;;103849;1295;544882;-84
2023/11/30 00:23:07;;;;;;;14.30;9.70;;;;;;;;;;104177;1289;544625;-78
2023/11/30 00:26:46;;;;;;;14.50;9.30;;;;;;;;;;104015;1292;545009;-76
2023/11/30 00:30:22;;;;;;;15.00;9.80;;;;;;;;;;104038;1290;544850;-78
2023/11/30 00:34:13;;;;;;;18.30;10.40;;;;;;;;;;104602;1285;548532;-77
2023/11/30 00:38:02;;;;;;;16.30;10.20;;;;;;;;;;103724;1294;547966;-77
2023/11/30 00:41:44;;;;;;;15.70;9.50;;;;;;;;;;104223;1289;545535;-81
2023/11/30 00:44:57;;;;;;;15.70;9.30;;;;;;;;;;103920;1291;547761;-83
2023/11/30 00:48:34;;;;;;;14.30;9.70;;;;;;;;;;104102;1289;545557;-77
2023/11/30 00:52:34;;;;;;;13.90;9.20;;;;;;;;;;104047;1292;548785;-77
2023/11/30 00:56:25;;;;;;;14.80;9.90;;;;;;;;;;103801;1298;547756;-87
2023/11/30 00:59:30;;;;;;;13.90;9.00;;;;;;;;;;103819;1298;549206;-89
2023/11/30 01:03:19;;;;;;;12.20;8.10;;;;;;;;;;104634;1286;545963;-80
2023/11/30 01:06:48;;;;;;;11.90;7.60;;;;;;;;;;104019;1294;546097;-81
2023/11/30 01:10:38;;;;;;;14.00;8.60;;;;;;;;;;103825;1292;548024;-78
2023/11/30 01:13:56;;;;;;;12.90;8.50;;;;;;;;;;103986;1292;545529;-81
2023/11/30 01:17:35;;;;;;;12.90;8.60;;;;;;;;;;103561;1295;548158;-75
2023/11/30 01:21:20;;;;;;;12.30;8.00;;;;;;;;;;103914;1301;549449;-78
2023/11/30 01:24:46;;;;;;;11.60;7.80;;;;;;;;;;103743;1295;544939;-82
2023/11/30 01:28:51;;;;;;;13.20;8.40;;;;;;;;;;103729;1291;547271;-83
2023/11/30 01:32:20;;;;;;;13.70;8.90;;;;;;;;;;103751;1292;545239;-76
2023/11/30 01:35:49;;;;;;;12.10;7.70;;;;;;;;;;103949;1293;544776;-77
2023/11/30 01:39:34;;;;;;;13.10;8.00;;;;;;;;;;104012;1295;547713;-77
2023/11/30 01:46:39;;;;;;;12.70;7.90;;;;;;;;;;103699;1295;545110;-82
2023/11/30 01:50:31;;;;;;;15.10;8.80;;;;;;;;;;103726;1292;547956;-80
2023/11/30 01:54:06;;;;;;;14.50;8.30;;;;;;;;;;103455;1293;545312;-78
2023/11/30 01:58:00;;;;;;;14.10;8.40;;;;;;;;;;103597;1308;546167;-84
2023/11/30 02:01:17;;;;;;;13.00;8.20;;;;;;;;;;104091;1285;547873;-83
2023/11/30 02:05:05;;;;;;;;;;;;;;;;;;;;;
2023/11/30 02:08:31;;;;;;;15.10;9.60;;;;;;;;;;103797;1292;547963;-82
2023/11/30 02:12:01;;;;;;;14.50;8.70;;;;;;;;;;103856;1291;544810;-76
2023/11/30 02:15:44;;;;;;;13.20;8.10;;;;;;;;;;103646;1295;548136;-78
2023/11/30 02:19:20;;;;;;;13.20;8.60;;;;;;;;;;103932;1289;545796;-77
2023/11/30 02:22:59;;;;;;;13.60;8.50;;;;;;;;;;103881;1289;547795;-78
2023/11/30 02:26:59;;;;;;;13.40;9.10;;;;;;;;;;103702;1295;548260;-84
2023/11/30 02:30:16;;;;;;;12.90;8.60;;;;;;;;;;103906;1288;549006;-75
2023/11/30 02:34:25;;;;;;;12.70;8.40;;;;;;;;;;103810;1291;548008;-76
2023/11/30 02:37:23;;;;;;;12.90;8.40;;;;;;;;;;103988;1289;545083;-80
2023/11/30 02:41:17;;;;;;;14.50;9.20;;;;;;;;;;103867;1289;544818;-79
2023/11/30 02:44:47;;;;;;;13.10;9.10;;;;;;;;;;103583;1294;547784;-83
2023/11/30 02:48:55;;;;;;;;;;;;;;;;;;;;;
2023/11/30 02:52:22;;;;;;;11.80;8.10;;;;;;;;;;103748;1290;548078;-77
2023/11/30 02:55:40;;;;;;;12.20;8.20;;;;;;;;;;103785;1295;547836;-81
2023/11/30 02:59:14;;;;;;;12.00;8.30;;;;;;;;;;103817;1291;547913;-78
2023/11/30 03:02:47;;;;;;;12.20;8.20;;;;;;;;;;104459;1286;549090;-76
2023/11/30 03:06:29;;;;;;;11.80;7.40;;;;;;;;;;103687;1295;548086;-78
2023/11/30 03:10:13;;;;;;;11.60;8.10;;;;;;;;;;103772;1289;547781;-83
2023/11/30 03:13:43;;;;;;;12.90;9.20;;;;;;;;;;103403;1294;545979;-83
2023/11/30 03:17:29;;;;;;;13.90;9.60;;;;;;;;;;103791;1289;547965;-89
2023/11/30 03:21:13;;;;;;;;;;;;;;;;;;;;;
2023/11/30 03:24:38;;;;;;;11.50;7.50;;;;;;;;;;103603;1294;548091;-89
2023/11/30 03:28:21;;;;;;;12.10;7.80;;;;;;;;;;103767;1289;545555;-79
2023/11/30 03:31:53;;;;;;;11.20;7.50;;;;;;;;;;103852;1289;545798;-84
2023/11/30 03:35:22;;;;;;;11.70;7.80;;;;;;;;;;103843;1294;545390;-78
2023/11/30 03:39:22;;;;;;;;;;;;;;;;;;;;;
2023/11/30 03:42:48;;;;;;;12.20;7.40;;;;;;;;;;103736;1308;545415;-78
2023/11/30 03:46:24;;;;;;;14.70;9.70;;;;;;;;;;103724;1296;545923;-80
2023/11/30 03:49:55;;;;;;;13.90;9.80;;;;;;;;;;103854;1292;545616;-83
2023/11/30 03:53:48;;;;;;;;;;;;;;;;;;;;;
2023/11/30 03:57:37;;;;;;;15.90;11.10;;;;;;;;;;104142;1292;545468;-78
2023/11/30 04:01:03;;;;;;;15.50;10.10;;;;;;;;;;103769;1288;545104;-80
2023/11/30 04:04:32;;;;;;;13.60;9.10;;;;;;;;;;103740;1292;546555;-77
2023/11/30 04:08:28;;;;;;;13.00;9.60;;;;;;;;;;103807;1291;547880;-78
2023/11/30 04:12:07;;;;;;;15.80;11.10;;;;;;;;;;104254;1294;545848;-78
2023/11/30 04:15:20;;;;;;;17.10;12.00;;;;;;;;;;103969;1292;547997;-78
2023/11/30 04:18:55;;;;;;;15.80;11.50;;;;;;;;;;103878;1292;548007;-78
2023/11/30 04:22:51;;;;;;;16.20;11.60;;;;;;;;;;104190;1296;545235;-79
2023/11/30 04:26:12;;;;;;;17.10;12.80;;;;;;;;;;103972;1291;548022;-78
2023/11/30 04:30:03;;;;;;;16.40;12.40;;;;;;;;;;103891;1295;546633;-78
2023/11/30 04:33:30;;;;;;;17.60;13.00;;;;;;;;;;103995;1295;546202;-79
2023/11/30 04:36:59;;;;;;;14.00;10.70;;;;;;;;;;104114;1295;545432;-77
2023/11/30 04:40:40;;;;;;;14.30;9.90;;;;;;;;;;104118;1296;549196;-78
2023/11/30 04:44:27;;;;;;;18.30;11.60;;;;;;;;;;103763;1297;545604;-78
2023/11/30 04:47:58;;;;;;;19.20;13.50;;;;;;;;;;103996;1288;546965;-79
2023/11/30 04:51:46;;;;;;;22.10;12.90;;;;;;;;;;104057;1291;548088;-79
2023/11/30 04:55:32;;;;;;;21.10;13.40;;;;;;;;;;103815;1289;548123;-85
2023/11/30 04:58:52;;;;;;;16.10;11.10;;;;;;;;;;104371;1284;549142;-85
2023/11/30 05:02:32;;;;;;;16.60;11.60;;;;;;;;;;103855;1292;547864;-78
2023/11/30 05:06:19;;;;;;;16.60;11.30;;;;;;;;;;103846;1298;547985;-78
2023/11/30 05:09:46;;;;;;;16.30;10.80;;;;;;;;;;104194;1285;545247;-78
2023/11/30 05:13:15;;;;;;;18.30;11.70;;;;;;;;;;104005;1291;545038;-79
2023/11/30 05:17:02;;;;;;;17.00;11.20;;;;;;;;;;103934;1295;549140;-87
2023/11/30 05:20:44;;;;;;;19.40;12.30;;;;;;;;;;103537;1297;545636;-78
2023/11/30 05:24:15;;;;;;;22.80;14.70;;;;;;;;;;103991;1290;548576;-77
2023/11/30 05:27:53;;;;;;;21.20;14.30;;;;;;;;;;104086;1290;545373;-78
2023/11/30 05:31:45;;;;;;;37.90;22.90;;;;;;;;;;103947;1292;545256;-79
2023/11/30 05:35:38;;;;;;;;;;;;;;;;;;;;;
2023/11/30 05:38:58;;;;;;;26.30;17.40;;;;;;;;;;103615;1297;545391;-82
2023/11/30 05:42:45;;;;;;;27.60;19.70;;;;;;;;;;103924;1291;546145;-84
2023/11/30 05:46:32;;;;;;;45.40;34.10;;;;;;;;;;103938;1295;548040;-77
2023/11/30 05:50:30;;;;;;;36.40;27.10;;;;;;;;;;104227;1290;546167;-77
2023/11/30 05:54:06;;;;;;;34.50;25.10;;;;;;;;;;103757;1297;547883;-88
2023/11/30 05:57:17;;;;;;;29.90;21.60;;;;;;;;;;103928;1292;545392;-87
2023/11/30 06:01:05;;;;;;;26.50;17.60;;;;;;;;;;104281;1294;545167;-78
2023/11/30 06:04:35;;;;;;;24.10;15.90;;;;;;;;;;104012;1292;544981;-78
2023/11/30 06:08:34;;;;;;;21.90;16.00;;;;;;;;;;104066;1289;548207;-84
2023/11/30 06:12:18;;;;;;;;;;;;;;;;;;;;;
2023/11/30 06:15:29;;;;;;;23.00;15.80;;;;;;;;;;104102;1292;547996;-77
2023/11/30 06:19:25;;;;;;;19.90;14.20;;;;;;;;;;104211;1295;545168;-78
2023/11/30 06:22:46;;;;;;;19.60;13.40;;;;;;;;;;103959;1292;545237;-77
2023/11/30 06:26:28;;;;;;;19.10;12.90;;;;;;;;;;104265;1289;545778;-77
2023/11/30 06:29:49;;;;;;;20.40;13.20;;;;;;;;;;104010;1291;544761;-77
2023/11/30 06:33:35;;;;;;;23.60;15.50;;;;;;;;;;103760;1293;545140;-77
2023/11/30 06:37:15;;;;;;;21.90;13.90;;;;;;;;;;104015;1291;549164;-76
2023/11/30 06:40:48;;;;;;;21.30;15.20;;;;;;;;;;104098;1292;548001;-76
2023/11/30 06:44:32;;;;;;;30.30;21.30;;;;;;;;;;104056;1289;548093;-77
2023/11/30 06:48:25;;;;;;;54.10;36.10;;;;;;;;;;104019;1291;545526;-78
2023/11/30 06:52:27;;;;;;;75.40;46.60;;;;;;;;;;104195;1291;545713;-77
2023/11/30 06:56:04;;;;;;;92.50;55.30;;;;;;;;;;103873;1296;545652;-75
2023/11/30 06:59:15;;;;;;;93.80;59.30;;;;;;;;;;104023;1294;549761;-77
2023/11/30 07:03:21;;;;;;;66.60;46.80;;;;;;;;;;104109;1294;545800;-74
2023/11/30 07:06:53;;;;;;;60.90;42.50;;;;;;;;;;103596;1293;546812;-80
2023/11/30 07:10:31;;;;;;;52.80;38.90;;;;;;;;;;103808;1290;549658;-85
2023/11/30 07:14:13;;;;;;;;;;;;;;;;;;;;;
2023/11/30 07:17:28;;;;;;;70.40;52.10;;;;;;;;;;103830;1294;545985;-82
2023/11/30 07:21:07;;;;;;;75.90;54.60;;;;;;;;;;103638;1295;548109;-77
2023/11/30 07:28:43;;;;;;;;;;;;;;;;;;;;;
2023/11/30 07:32:17;;;;;;;88.60;53.10;;;;;;;;;;103560;1297;545813;-81
2023/11/30 07:36:26;;;;;;;;;;;;;;;;;;;;;
2023/11/30 07:40:11;;;;;;;;;;;;;;;;;;;;;
2023/11/30 07:43:35;;;;;;;81.10;49.20;;;;;;;;;;103410;1294;547983;-80
2023/11/30 07:47:13;;;;;;;73.30;46.60;;;;;;;;;;103587;1295;549358;-86
2023/11/30 07:50:53;;;;;;;76.40;49.30;;;;;;;;;;103802;1292;548130;-82
2023/11/30 07:54:53;;;;;;;73.00;50.40;;;;;;;;;;103489;1294;545434;-83
2023/11/30 07:58:45;;;;;;;;;;;;;;;;;;;;;
2023/11/30 08:02:01;;;;;;;66.40;45.10;;;;;;;;;;103636;1292;549747;-77
2023/11/30 08:06:04;;;;;;;68.50;43.00;;;;;;;;;;103772;1298;545461;-86
2023/11/30 08:09:38;;;;;;;;;;;;;;;;;;;;;
2023/11/30 08:12:58;;;;;;;78.70;53.00;;;;;;;;;;103681;1291;545353;-89
2023/11/30 08:16:37;;;;;;;89.50;61.70;;;;;;;;;;103609;1295;545798;-83
2023/11/30 08:20:13;;;;;;;87.60;57.00;;;;;;;;;;103752;1293;547947;-87
2023/11/30 08:24:13;;;;;;;;;;;;;;;;;;;;;
2023/11/30 08:27:25;;;;;;;130.50;76.60;;;;;;;;;;103680;1289;546084;-78
2023/11/30 08:31:28;;;;;;;150.10;87.60;;;;;;;;;;104154;1292;545709;-78
2023/11/30 08:34:46;;;;;;;158.60;88.10;;;;;;;;;;104044;1294;545207;-78
2023/11/30 08:38:19;;;;;;;170.30;97.70;;;;;;;;;;103972;1291;545363;-77
2023/11/30 08:41:56;;;;;;;147.80;82.20;;;;;;;;;;103960;1292;545388;-76
2023/11/30 08:45:34;;;;;;;147.70;79.70;;;;;;;;;;104701;1288;545197;-77
2023/11/30 08:49:19;;;;;;;143.90;80.90;;;;;;;;;;104867;1285;546312;-78
2023/11/30 08:52:48;;;;;;;129.40;73.80;;;;;;;;;;104210;1288;548001;-76
2023/11/30 08:56:26;;;;;;;118.00;67.80;;;;;;;;;;103885;1295;545442;-77
2023/11/30 09:00:05;;;;;;;103.90;60.00;;;;;;;;;;104001;1292;545279;-78
2023/11/30 09:03:38;;;;;;;101.90;56.80;;;;;;;;;;103961;1289;547170;-78
2023/11/30 09:07:36;;;;;;;140.90;100.90;;;;;;;;;;104074;1295;547905;-79
2023/11/30 09:11:01;;;;;;;85.90;55.50;;;;;;;;;;104237;1294;545051;-80
2023/11/30 09:14:40;;;;;;;66.90;40.10;;;;;;;;;;104593;1285;545032;-85
2023/11/30 09:18:10;;;;;;;36.00;24.70;;;;;;;;;;104338;1288;548146;-83
2023/11/30 09:21:48;;;;;;;40.60;26.20;;;;;;;;;;103956;1289;548219;-82
2023/11/30 09:25:34;;;;;;;37.50;24.30;;;;;;;;;;103898;1294;548029;-80
2023/11/30 09:29:03;;;;;;;42.80;27.50;;;;;;;;;;103863;1295;546915;-80
2023/11/30 09:32:37;;;;;;;38.40;22.30;;;;;;;;;;103854;1291;546926;-80
2023/11/30 09:36:36;;;;;;;;;;;;;;;;;;;;;
2023/11/30 09:39:51;;;;;;;31.30;19.30;;;;;;;;;;104126;1289;547969;-81
2023/11/30 09:43:29;;;;;;;40.30;24.40;;;;;;;;;;103741;1298;548004;-80
2023/11/30 09:47:10;;;;;;;38.00;24.50;;;;;;;;;;104026;1289;547897;-80
2023/11/30 09:50:58;;;;;;;;;;;;;;;;;;;;;
2023/11/30 09:54:24;;;;;;;46.90;33.40;;;;;;;;;;103852;1296;546092;-81
2023/11/30 09:58:22;;;;;;;31.00;21.00;;;;;;;;;;104015;1292;548454;-80
2023/11/30 10:01:59;;;;;;;34.00;24.20;;;;;;;;;;104102;1291;548013;-81
2023/11/30 10:05:19;;;;;;;61.60;39.60;;;;;;;;;;103840;1289;548126;-82
2023/11/30 10:08:52;;;;;;;70.00;40.20;;;;;;;;;;104003;1288;547860;-83
2023/11/30 10:12:30;;;;;;;78.50;39.10;;;;;;;;;;104139;1289;549319;-82
2023/11/30 10:16:08;;;;;;;131.20;65.30;;;;;;;;;;104210;1292;545354;-82
2023/11/30 10:19:44;;;;;;;58.80;40.20;;;;;;;;;;104620;1289;549502;-81
2023/11/30 10:24:00;;;;;;;;;;;;;;;;;;;;;
2023/11/30 10:27:08;;;;;;;31.70;18.60;;;;;;;;;;104589;1289;549319;-81
2023/11/30 10:30:44;;;;;;;22.50;13.90;;;;;;;;;;104244;1289;548048;-83
2023/11/30 10:34:17;;;;;;;27.20;15.40;;;;;;;;;;104313;1285;547834;-87
2023/11/30 10:37:52;;;;;;;26.80;15.90;;;;;;;;;;103776;1292;545994;-86
2023/11/30 10:41:38;;;;;;;30.90;17.10;;;;;;;;;;103642;1296;547917;-84
2023/11/30 10:45:07;;;;;;;28.20;19.20;;;;;;;;;;103939;1292;548011;-87
2023/11/30 10:52:38;;;;;;;27.90;16.90;;;;;;;;;;103888;1294;547565;-87
2023/11/30 10:56:19;;;;;;;29.30;17.70;;;;;;;;;;103942;1292;545425;-86
2023/11/30 11:03:38;;;;;;;21.20;14.50;;;;;;;;;;103895;1295;546851;-83
2023/11/30 11:07:24;;;;;;;;;;;;;;;;;;;;;
2023/11/30 11:11:10;;;;;;;32.10;22.00;;;;;;;;;;103937;1292;549332;-83
2023/11/30 11:14:29;;;;;;;30.00;21.70;;;;;;;;;;103997;1292;547935;-82
2023/11/30 11:18:10;;;;;;;19.10;13.80;;;;;;;;;;104159;1289;548113;-83
2023/11/30 11:22:25;;;;;;;23.00;15.90;;;;;;;;;;103905;1291;545915;-83
2023/11/30 11:25:36;;;;;;;29.40;20.00;;;;;;;;;;103846;1295;547989;-85
2023/11/30 11:29:12;;;;;;;32.00;19.90;;;;;;;;;;103815;1291;546023;-83
2023/11/30 11:32:46;;;;;;;25.10;16.40;;;;;;;;;;103950;1289;547916;-84
2023/11/30 11:36:48;;;;;;;26.50;15.60;;;;;;;;;;103714;1296;545422;-83
2023/11/30 11:39:54;;;;;;;21.30;15.70;;;;;;;;;;103976;1292;547765;-80
2023/11/30 11:43:48;;;;;;;24.10;16.70;;;;;;;;;;104526;1283;545207;-82
2023/11/30 11:47:16;;;;;;;24.50;16.30;;;;;;;;;;103901;1293;545790;-84
2023/11/30 11:50:59;;;;;;;27.20;17.40;;;;;;;;;;103907;1291;547779;-85
2023/11/30 11:54:47;;;;;;;30.60;16.60;;;;;;;;;;103945;1289;549284;-82
2023/11/30 11:58:25;;;;;;;30.70;15.10;;;;;;;;;;103719;1292;548051;-85
2023/11/30 12:01:57;;;;;;;;;;;;;;;;;;;;;
2023/11/30 12:05:31;;;;;;;23.20;15.00;;;;;;;;;;103804;1294;549452;-80
2023/11/30 12:09:59;;;;;;;;;;;;;;;;;;;;;
2023/11/30 12:13:22;;;;;;;;;;;;;;;;;;;;;
2023/11/30 12:16:51;;;;;;;21.00;14.90;;;;;;;;;;103849;1293;545420;-86
2023/11/30 12:20:23;;;;;;;24.70;18.70;;;;;;;;;;103923;1291;547970;-88
2023/11/30 12:24:15;;;;;;;;;;;;;;;;;;;;;
2023/11/30 12:27:39;;;;;;;28.50;19.30;;;;;;;;;;104590;1283;547948;-86
2023/11/30 12:31:14;;;;;;;25.20;18.00;;;;;;;;;;104094;1289;549155;-83
2023/11/30 12:35:07;;;;;;;28.40;16.70;;;;;;;;;;103874;1291;548297;-83
2023/11/30 12:38:52;;;;;;;;;;;;;;;;;;;;;
2023/11/30 12:46:07;;;;;;;33.20;19.40;;;;;;;;;;104084;1288;545803;-82
2023/11/30 12:49:30;;;;;;;32.70;17.70;;;;;;;;;;103852;1291;548004;-85
2023/11/30 12:53:17;;;;;;;;;;;;;;;;;;;;;
2023/11/30 12:56:53;;;;;;;50.90;26.70;;;;;;;;;;103955;1289;547950;-81
2023/11/30 13:00:14;;;;;;;54.30;30.70;;;;;;;;;;103814;1291;548022;-81
2023/11/30 13:03:52;;;;;;;133.50;69.70;;;;;;;;;;103845;1293;547838;-84
2023/11/30 13:07:42;;;;;;;;;;;;;;;;;;;;;
2023/11/30 13:11:02;;;;;;;53.50;28.00;;;;;;;;;;104013;1288;549743;-82
2023/11/30 13:14:45;;;;;;;39.00;18.70;;;;;;;;;;103965;1293;545326;-85
2023/11/30 13:18:25;;;;;;;26.80;16.10;;;;;;;;;;103554;1295;549000;-81
2023/11/30 13:21:57;;;;;;;29.30;19.00;;;;;;;;;;103945;1289;545836;-85
2023/11/30 13:26:06;;;;;;;34.00;21.30;;;;;;;;;;103828;1293;548079;-86
2023/11/30 13:29:27;;;;;;;;;;;;;;;;;;;;;
2023/11/30 13:33:00;;;;;;;27.90;17.70;;;;;;;;;;104017;1300;544982;-85
2023/11/30 13:36:44;;;;;;;;;;;;;;;;;;;;;
2023/11/30 13:40:36;;;;;;;;;;;;;;;;;;;;;
2023/11/30 13:43:57;;;;;;;;;;;;;;;;;;;;;
2023/11/30 13:47:41;;;;;;;76.50;38.50;;;;;;;;;;103864;1289;548179;-81
2023/11/30 13:50:56;;;;;;;163.20;65.90;;;;;;;;;;103847;1292;548036;-86
2023/11/30 13:54:31;;;;;;;229.30;110.20;;;;;;;;;;103872;1292;548004;-86
2023/11/30 13:58:28;;;;;;;68.60;35.90;;;;;;;;;;103981;1289;548163;-85
2023/11/30 14:02:08;;;;;;;56.20;31.20;;;;;;;;;;104047;1291;548022;-82
2023/11/30 14:06:04;;;;;;;70.20;42.20;;;;;;;;;;104074;1294;545740;-86
2023/11/30 14:09:26;;;;;;;66.80;42.20;;;;;;;;;;103792;1291;548021;-81
2023/11/30 14:12:54;;;;;;;64.50;41.70;;;;;;;;;;103879;1292;549211;-86
2023/11/30 14:16:32;;;;;;;79.90;50.40;;;;;;;;;;103877;1291;548003;-84
2023/11/30 14:19:57;;;;;;;73.00;45.10;;;;;;;;;;103848;1291;547730;-84
2023/11/30 14:24:14;;;;;;;;;;;;;;;;;;;;;
2023/11/30 14:27:40;;;;;;;;;;;;;;;;;;;;;
2023/11/30 14:30:50;;;;;;;47.40;28.10;;;;;;;;;;103883;1292;545333;-84
2023/11/30 14:34:31;;;;;;;43.70;27.20;;;;;;;;;;103785;1291;545266;-86
2023/11/30 14:38:03;;;;;;;36.60;22.60;;;;;;;;;;103875;1291;547735;-80
2023/11/30 14:41:43;;;;;;;32.60;20.30;;;;;;;;;;103622;1295;547936;-81
2023/11/30 14:55:45;;;;;;;43.70;26.50;;;;;;;;;;104475;1285;553579;-80
2023/11/30 14:58:45;;;;;;;41.00;27.50;;;;;;;;;;103737;1291;545321;-82
2023/11/30 15:02:24;;;;;;;48.90;33.80;;;;;;;;;;104086;1291;548080;-88
2023/11/30 15:06:17;;;;;;;48.90;33.10;;;;;;;;;;103844;1292;545985;-80
2023/11/30 15:09:42;;;;;;;53.80;34.50;;;;;;;;;;103858;1290;549135;-79
2023/11/30 15:13:09;;;;;;;49.10;32.20;;;;;;;;;;103758;1295;547961;-86
2023/11/30 15:17:13;;;;;;;;;;;;;;;;;;;;;
2023/11/30 15:20:21;;;;;;;96.90;62.80;;;;;;;;;;103793;1292;549001;-79
2023/11/30 15:24:02;;;;;;;117.50;73.70;;;;;;;;;;103578;1295;547909;-86
2023/11/30 15:27:39;;;;;;;145.50;92.50;;;;;;;;;;103471;1294;549123;-85
2023/11/30 15:31:25;;;;;;;137.00;82.40;;;;;;;;;;103810;1294;548584;-81
2023/11/30 15:34:53;;;;;;;138.00;84.50;;;;;;;;;;103563;1292;545634;-78
2023/11/30 15:38:32;;;;;;;145.20;93.80;;;;;;;;;;103647;1292;548111;-82
2023/11/30 15:42:50;;;;;;;114.90;76.80;;;;;;;;;;104836;1285;546528;-80
2023/11/30 15:45:52;;;;;;;109.00;71.40;;;;;;;;;;103663;1291;548198;-78
2023/11/30 15:49:32;;;;;;;93.00;64.00;;;;;;;;;;103652;1295;548017;-78
2023/11/30 15:53:09;;;;;;;118.30;76.80;;;;;;;;;;103509;1295;547814;-81
2023/11/30 15:56:39;;;;;;;103.10;64.80;;;;;;;;;;103426;1295;547784;-87
2023/11/30 16:00:20;;;;;;;94.30;57.40;;;;;;;;;;103737;1291;545546;-79
2023/11/30 16:03:58;;;;;;;115.80;66.30;;;;;;;;;;104100;1291;548225;-79
2023/11/30 16:07:36;;;;;;;91.80;57.40;;;;;;;;;;103648;1292;548005;-82
2023/11/30 16:11:23;;;;;;;;;;;;;;;;;;;;;
2023/11/30 16:14:53;;;;;;;82.70;51.60;;;;;;;;;;103735;1295;548494;-79
2023/11/30 16:18:24;;;;;;;99.70;60.50;;;;;;;;;;103418;1291;547840;-83
2023/11/30 16:22:02;;;;;;;113.30;68.30;;;;;;;;;;103393;1294;547832;-77
2023/11/30 16:25:48;;;;;;;155.60;84.00;;;;;;;;;;104641;1285;547933;-79
2023/11/30 16:29:16;;;;;;;139.40;79.40;;;;;;;;;;103797;1290;547778;-79
2023/11/30 16:32:58;;;;;;;182.10;93.20;;;;;;;;;;103755;1292;547827;-84
2023/11/30 16:36:44;;;;;;;137.10;75.30;;;;;;;;;;103641;1297;546181;-79
2023/11/30 16:40:04;;;;;;;124.80;72.30;;;;;;;;;;104054;1292;545027;-78
2023/11/30 16:43:52;;;;;;;129.00;73.70;;;;;;;;;;103826;1287;545470;-79
2023/11/30 16:47:48;;;;;;;136.60;81.70;;;;;;;;;;104858;1283;544889;-78
2023/11/30 16:51:09;;;;;;;228.90;134.10;;;;;;;;;;103972;1295;545613;-88
2023/11/30 16:54:39;;;;;;;212.00;126.40;;;;;;;;;;104056;1289;545784;-78
2023/11/30 16:58:11;;;;;;;185.10;108.30;;;;;;;;;;103705;1293;544708;-77
2023/11/30 17:02:12;;;;;;;;;;;;;;;;;;;;;
2023/11/30 17:05:52;;;;;;;149.30;91.10;;;;;;;;;;104173;1286;545220;-84
2023/11/30 17:09:06;;;;;;;175.10;100.80;;;;;;;;;;103503;1291;545771;-78
2023/11/30 17:12:42;;;;;;;213.30;109.40;;;;;;;;;;104311;1283;544857;-83
2023/11/30 17:16:17;;;;;;;253.10;127.60;;;;;;;;;;103895;1288;545155;-84
2023/11/30 17:19:55;;;;;;;263.10;136.20;;;;;;;;;;103766;1289;545021;-82
2023/11/30 17:23:49;;;;;;;260.60;142.60;;;;;;;;;;103637;1292;545219;-82
2023/11/30 17:27:09;;;;;;;238.10;134.00;;;;;;;;;;103886;1292;545398;-74
2023/11/30 17:30:53;;;;;;;213.30;118.00;;;;;;;;;;103671;1292;549148;-77
2023/11/30 17:38:11;;;;;;;158.40;85.70;;;;;;;;;;103860;1291;545320;-76
2023/11/30 17:41:55;;;;;;;149.50;82.70;;;;;;;;;;103583;1292;546236;-75
2023/11/30 17:46:02;;;;;;;140.20;84.70;;;;;;;;;;104229;1288;548288;-82
2023/11/30 17:49:05;;;;;;;154.90;91.90;;;;;;;;;;103829;1288;544947;-76
2023/11/30 17:52:53;;;;;;;150.40;92.90;;;;;;;;;;103980;1288;545546;-78
2023/11/30 17:56:23;;;;;;;157.80;89.70;;;;;;;;;;103745;1292;544800;-76
2023/11/30 18:00:00;;;;;;;110.60;64.80;;;;;;;;;;103770;1289;545010;-77
2023/11/30 18:03:44;;;;;;;95.10;56.00;;;;;;;;;;103668;1295;547886;-81
2023/11/30 18:07:15;;;;;;;116.00;66.40;;;;;;;;;;104583;1289;545037;-76
2023/11/30 18:11:00;;;;;;;130.80;76.10;;;;;;;;;;103674;1292;549231;-78
2023/11/30 18:14:31;;;;;;;141.80;82.30;;;;;;;;;;103775;1292;544867;-76
2023/11/30 18:18:27;;;;;;;132.80;75.60;;;;;;;;;;103643;1295;547792;-75
2023/11/30 18:21:45;;;;;;;162.20;87.90;;;;;;;;;;103977;1286;544956;-75
2023/11/30 18:25:33;;;;;;;163.10;87.70;;;;;;;;;;104075;1290;548859;-76
2023/11/30 18:29:03;;;;;;;289.70;154.30;;;;;;;;;;103959;1289;547938;-75
2023/11/30 18:32:39;;;;;;;307.80;167.80;;;;;;;;;;103754;1294;545060;-77
2023/11/30 18:36:19;;;;;;;312.60;171.50;;;;;;;;;;103878;1289;547741;-75
2023/11/30 18:39:58;;;;;;;298.90;150.70;;;;;;;;;;103727;1295;545004;-75
2023/11/30 18:43:30;;;;;;;285.10;141.30;;;;;;;;;;103744;1295;545025;-75
2023/11/30 18:47:49;;;;;;;;;;;;;;;;;;;;;
2023/11/30 18:51:04;;;;;;;;;;;;;;;;;;;;;
2023/11/30 19:04:58;;;;;;;;;;;;;;;;;;;;;
2023/11/30 19:07:48;;;;;;;253.90;142.10;;;;;;;;;;103811;1291;545019;-79
2023/11/30 19:11:20;;;;;;;238.50;127.20;;;;;;;;;;103857;1289;545044;-77
2023/11/30 19:15:15;;;;;;;241.20;125.90;;;;;;;;;;103730;1292;545526;-78
2023/11/30 19:18:47;;;;;;;266.20;145.90;;;;;;;;;;103671;1294;549276;-80
2023/11/30 19:22:17;;;;;;;279.70;157.90;;;;;;;;;;103917;1292;545627;-74
2023/11/30 19:26:00;;;;;;;296.60;166.80;;;;;;;;;;103744;1291;545011;-74
2023/11/30 19:29:51;;;;;;;269.70;146.60;;;;;;;;;;103946;1301;545591;-75
2023/11/30 19:33:11;;;;;;;285.00;150.60;;;;;;;;;;103706;1295;544944;-74
2023/11/30 19:37:00;;;;;;;280.80;146.60;;;;;;;;;;103773;1292;544856;-78
2023/11/30 19:40:23;;;;;;;304.60;166.70;;;;;;;;;;103815;1289;544994;-76
2023/11/30 19:44:00;;;;;;;318.30;173.50;;;;;;;;;;103737;1291;545295;-80
2023/11/30 19:47:59;;;;;;;315.80;171.50;;;;;;;;;;103777;1294;549324;-75
2023/11/30 19:51:13;;;;;;;321.00;181.90;;;;;;;;;;103865;1290;544870;-74
2023/11/30 19:55:27;;;;;;;295.50;154.60;;;;;;;;;;103612;1294;545232;-82
2023/11/30 19:58:32;;;;;;;294.40;150.60;;;;;;;;;;103659;1295;548071;-77
2023/11/30 20:02:09;;;;;;;292.50;158.70;;;;;;;;;;103720;1292;544758;-76
2023/11/30 20:06:03;;;;;;;288.80;154.60;;;;;;;;;;103688;1295;545385;-78
2023/11/30 20:09:20;;;;;;;279.40;157.00;;;;;;;;;;104143;1289;544970;-77
2023/11/30 20:12:58;;;;;;;286.40;161.30;;;;;;;;;;103773;1292;546132;-74
2023/11/30 20:17:11;;;;;;;258.70;137.60;;;;;;;;;;103739;1292;546072;-77
2023/11/30 20:20:14;;;;;;;230.40;125.10;;;;;;;;;;103903;1289;545733;-75
2023/11/30 20:24:14;;;;;;;272.90;141.60;;;;;;;;;;103896;1289;544945;-75
2023/11/30 20:27:33;;;;;;;287.80;154.00;;;;;;;;;;103695;1291;547855;-75
2023/11/30 20:31:05;;;;;;;299.10;164.60;;;;;;;;;;104524;1283;545597;-74
2023/11/30 20:34:49;;;;;;;312.00;167.20;;;;;;;;;;103610;1292;548073;-78
2023/11/30 20:38:20;;;;;;;299.20;152.20;;;;;;;;;;103532;1295;545147;-77
2023/11/30 20:42:00;;;;;;;291.00;136.80;;;;;;;;;;103831;1289;545742;-75
2023/11/30 20:45:38;;;;;;;329.20;141.60;;;;;;;;;;103753;1291;545813;-75
2023/11/30 20:49:22;;;;;;;;;;;;;;;;;;;;;
2023/11/30 20:53:00;;;;;;;294.10;136.10;;;;;;;;;;104773;1285;545609;-74
2023/11/30 20:56:28;;;;;;;222.90;106.90;;;;;;;;;;104032;1289;544815;-74
2023/11/30 21:00:00;;;;;;;191.60;96.10;;;;;;;;;;103895;1292;546050;-77
2023/11/30 21:03:43;;;;;;;187.90;95.60;;;;;;;;;;103750;1291;544984;-79
2023/11/30 21:07:28;;;;;;;142.50;80.10;;;;;;;;;;103815;1302;544746;-75
2023/11/30 21:10:59;;;;;;;137.10;77.30;;;;;;;;;;103855;1292;545226;-77
2023/11/30 21:14:34;;;;;;;126.90;72.20;;;;;;;;;;103688;1292;544922;-74
2023/11/30 21:18:12;;;;;;;124.30;74.00;;;;;;;;;;103873;1290;545488;-78
2023/11/30 21:21:45;;;;;;;153.70;89.60;;;;;;;;;;104026;1289;544888;-79
2023/11/30 21:25:28;;;;;;;123.70;68.80;;;;;;;;;;104069;1291;545929;-76
2023/11/30 21:29:04;;;;;;;105.80;62.10;;;;;;;;;;103863;1293;544930;-76
2023/11/30 21:32:41;;;;;;;123.50;66.70;;;;;;;;;;103851;1292;545543;-76
2023/11/30 21:36:19;;;;;;;125.20;70.70;;;;;;;;;;103790;1289;545258;-78
2023/11/30 21:39:56;;;;;;;122.00;71.50;;;;;;;;;;103773;1289;545377;-75
2023/11/30 21:43:30;;;;;;;148.70;94.20;;;;;;;;;;103866;1289;544963;-74
2023/11/30 21:47:12;;;;;;;140.60;84.20;;;;;;;;;;103600;1298;545085;-74
2023/11/30 21:50:51;;;;;;;133.80;77.40;;;;;;;;;;103708;1289;545008;-76
2023/11/30 21:54:26;;;;;;;127.80;71.60;;;;;;;;;;104519;1285;545511;-76
2023/11/30 21:58:03;;;;;;;133.10;72.80;;;;;;;;;;104192;1290;544788;-75
2023/11/30 22:01:44;;;;;;;148.80;89.40;;;;;;;;;;103741;1293;544819;-74
2023/11/30 22:05:20;;;;;;;175.80;103.00;;;;;;;;;;103741;1298;545026;-74